createdAt,value
2022-10-19T00:00:22.279Z,18.10
2022-10-19T00:03:00.695Z,18.00
2022-10-19T00:05:38.360Z,18.00
2022-10-19T00:08:15.951Z,17.98
2022-10-19T00:10:53.831Z,17.92
2022-10-19T00:13:31.217Z,17.90
2022-10-19T00:16:12.669Z,17.90
2022-10-19T00:18:48.477Z,17.94
2022-10-19T00:21:25.475Z,18.00
2022-10-19T00:24:02.416Z,18.00
2022-10-19T00:26:39.072Z,18.00
2022-10-19T00:29:16.538Z,18.00
2022-10-19T00:31:54.694Z,18.00
2022-10-19T00:34:31.464Z,18.00
2022-10-19T00:37:08.047Z,17.90
2022-10-19T00:39:48.021Z,17.90
2022-10-19T00:42:24.245Z,17.90
2022-10-19T00:45:16.059Z,17.86
2022-10-19T00:47:53.522Z,17.80
2022-10-19T00:50:30.629Z,17.80
2022-10-19T00:53:07.049Z,17.80
2022-10-19T00:55:45.479Z,17.80
2022-10-19T00:58:21.958Z,17.80
2022-10-19T01:00:59.035Z,17.80
2022-10-19T01:03:37.059Z,17.80
2022-10-19T01:06:15.034Z,17.80
2022-10-19T01:08:52.515Z,17.80
2022-10-19T01:11:46.426Z,17.80
2022-10-19T01:14:40.549Z,17.80
2022-10-19T01:17:31.443Z,17.90
2022-10-19T01:20:56.557Z,17.88
2022-10-19T01:24:10.828Z,17.90
2022-10-19T01:27:22.783Z,17.80
2022-10-19T01:30:08.780Z,17.80
2022-10-19T01:33:37.605Z,17.80
2022-10-19T01:36:29.368Z,17.70
2022-10-19T01:39:15.758Z,17.70
2022-10-19T01:42:04.623Z,17.70
2022-10-19T01:44:49.649Z,17.70
2022-10-19T01:47:33.622Z,17.70
2022-10-19T01:50:16.250Z,17.70
2022-10-19T01:52:55.028Z,17.70
2022-10-19T01:55:32.552Z,17.70
2022-10-19T01:58:16.480Z,17.70
2022-10-19T02:00:57.344Z,17.64
2022-10-19T02:03:35.476Z,17.60
2022-10-19T02:06:16.033Z,17.60
2022-10-19T02:09:01.262Z,17.60
2022-10-19T02:11:40.072Z,17.54
2022-10-19T02:14:21.927Z,17.50
2022-10-19T02:17:03.324Z,17.50
2022-10-19T02:19:40.966Z,17.50
2022-10-19T02:22:17.910Z,17.50
2022-10-19T02:24:54.015Z,17.50
2022-10-19T02:27:31.394Z,17.50
2022-10-19T02:30:10.169Z,17.40
2022-10-19T02:32:46.682Z,17.30
2022-10-19T02:35:23.358Z,17.20
2022-10-19T02:38:02.511Z,17.20
2022-10-19T02:40:44.828Z,17.20
2022-10-19T02:43:24.989Z,17.20
2022-10-19T02:46:08.077Z,17.20
2022-10-19T02:48:46.226Z,17.22
2022-10-19T02:51:41.157Z,17.30
2022-10-19T02:54:17.255Z,17.30
2022-10-19T02:56:53.731Z,17.40
2022-10-19T02:59:29.786Z,17.32
2022-10-19T03:02:06.589Z,17.30
2022-10-19T03:04:43.219Z,17.30
2022-10-19T03:07:21.947Z,17.30
2022-10-19T03:09:57.951Z,17.30
2022-10-19T03:12:34.966Z,17.26
2022-10-19T03:15:18.164Z,17.20
2022-10-19T03:17:58.036Z,17.20
2022-10-19T03:20:34.455Z,17.20
2022-10-19T03:23:11.286Z,17.20
2022-10-19T03:25:48.196Z,17.20
2022-10-19T03:28:26.283Z,17.10
2022-10-19T03:31:02.114Z,17.00
2022-10-19T03:33:38.626Z,16.90
2022-10-19T03:36:30.437Z,16.80
2022-10-19T03:39:10.211Z,16.80
2022-10-19T03:41:46.639Z,16.70
2022-10-19T03:44:22.365Z,16.70
2022-10-19T03:46:57.886Z,16.70
2022-10-19T03:49:38.052Z,16.76
2022-10-19T03:52:17.256Z,16.80
2022-10-19T03:54:53.981Z,16.90
2022-10-19T03:57:30.834Z,16.90
2022-10-19T04:00:06.775Z,16.90
2022-10-19T04:02:47.874Z,16.90
2022-10-19T04:05:24.608Z,16.90
2022-10-19T04:08:01.076Z,16.80
2022-10-19T04:10:37.725Z,16.80
2022-10-19T04:13:14.145Z,16.80
2022-10-19T04:15:50.121Z,16.72
2022-10-19T04:18:26.576Z,16.70
2022-10-19T04:21:08.170Z,16.70
2022-10-19T04:23:45.196Z,16.70
2022-10-19T04:26:21.384Z,16.78
2022-10-19T04:28:59.348Z,16.80
2022-10-19T04:31:36.491Z,16.72
2022-10-19T04:34:11.835Z,16.70
2022-10-19T04:36:48.387Z,16.60
2022-10-19T04:39:25.741Z,16.58
2022-10-19T04:42:02.547Z,16.50
2022-10-19T04:44:37.581Z,16.40
2022-10-19T04:47:13.977Z,16.40
2022-10-19T04:49:49.863Z,16.40
2022-10-19T04:52:26.759Z,16.50
2022-10-19T04:55:03.728Z,16.50
2022-10-19T04:57:40.636Z,16.50
2022-10-19T05:00:22.984Z,16.40
2022-10-19T05:02:59.484Z,16.40
2022-10-19T05:05:36.590Z,16.40
2022-10-19T05:08:13.543Z,16.40
2022-10-19T05:10:50.300Z,16.38
2022-10-19T05:13:26.939Z,16.36
2022-10-19T05:16:10.859Z,16.38
2022-10-19T05:18:48.998Z,16.40
2022-10-19T05:21:26.078Z,16.40
2022-10-19T05:24:02.936Z,16.40
2022-10-19T05:26:38.926Z,16.40
2022-10-19T05:29:18.377Z,16.40
2022-10-19T05:31:54.688Z,16.38
2022-10-19T05:34:31.641Z,16.30
2022-10-19T05:37:07.851Z,16.24
2022-10-19T05:39:44.770Z,16.12
2022-10-19T05:42:21.481Z,16.10
2022-10-19T05:44:58.016Z,16.10
2022-10-19T05:47:35.806Z,16.20
2022-10-19T05:50:14.220Z,16.20
2022-10-19T05:52:50.424Z,16.20
2022-10-19T05:55:26.899Z,16.20
2022-10-19T05:58:02.686Z,16.22
2022-10-19T06:00:39.014Z,16.26
2022-10-19T06:03:15.890Z,16.30
2022-10-19T06:05:52.841Z,16.30
2022-10-19T06:08:30.023Z,16.30
2022-10-19T06:11:15.477Z,16.30
2022-10-19T06:13:55.347Z,16.40
2022-10-19T06:16:33.227Z,16.40
2022-10-19T06:19:09.430Z,16.50
2022-10-19T06:21:47.047Z,16.50
2022-10-19T06:24:23.518Z,16.50
2022-10-19T06:26:59.953Z,16.60
2022-10-19T06:29:37.123Z,16.60
2022-10-19T06:32:14.006Z,16.60
2022-10-19T06:34:53.062Z,16.62
2022-10-19T06:37:32.050Z,16.60
2022-10-19T06:40:11.489Z,16.70
2022-10-19T06:42:48.899Z,16.70
2022-10-19T06:45:26.203Z,16.70
2022-10-19T06:48:07.633Z,16.70
2022-10-19T06:50:44.628Z,16.80
2022-10-19T06:53:21.564Z,16.90
2022-10-19T06:55:59.139Z,16.90
2022-10-19T06:58:37.252Z,17.00
2022-10-19T07:01:15.051Z,17.00
2022-10-19T07:03:52.450Z,17.10
2022-10-19T07:06:29.729Z,17.10
2022-10-19T07:09:05.826Z,17.20
2022-10-19T07:11:45.879Z,17.20
2022-10-19T07:14:24.803Z,17.20
2022-10-19T07:17:01.742Z,17.20
2022-10-19T07:19:38.060Z,17.28
2022-10-19T07:22:19.100Z,17.30
2022-10-19T07:24:58.403Z,17.40
2022-10-19T07:27:37.619Z,17.50
2022-10-19T07:30:17.240Z,17.60
2022-10-19T07:32:53.149Z,17.70
2022-10-19T07:35:30.358Z,17.80
2022-10-19T07:38:07.126Z,17.90
2022-10-19T07:40:46.417Z,18.00
2022-10-19T07:43:24.732Z,18.10
2022-10-19T07:46:08.066Z,18.20
2022-10-19T07:48:43.856Z,18.38
2022-10-19T07:51:21.226Z,18.50
2022-10-19T07:53:58.054Z,18.60
2022-10-19T07:56:35.033Z,18.70
2022-10-19T07:59:12.537Z,18.78
2022-10-19T08:01:49.744Z,18.80
2022-10-19T08:07:22.652Z,18.98
2022-10-19T08:09:59.409Z,19.00
2022-10-19T08:12:37.571Z,19.08
2022-10-19T08:15:16.719Z,19.10
2022-10-19T08:17:52.939Z,19.20
2022-10-19T08:20:29.814Z,19.20
2022-10-19T08:23:05.788Z,19.30
2022-10-19T08:25:42.320Z,19.30
2022-10-19T08:28:18.178Z,19.30
2022-10-19T08:30:58.360Z,19.40
2022-10-19T08:33:34.693Z,19.42
2022-10-19T08:36:15.625Z,19.52
2022-10-19T08:38:52.609Z,19.60
2022-10-19T08:41:40.627Z,19.66
2022-10-19T08:45:11.184Z,19.70
2022-10-19T08:48:15.599Z,19.80
2022-10-19T08:50:53.562Z,19.90
2022-10-19T08:53:48.297Z,19.98
2022-10-19T08:56:51.948Z,20.00
2022-10-19T08:59:42.681Z,20.10
2022-10-19T09:02:31.025Z,20.16
2022-10-19T09:05:21.759Z,20.20
2022-10-19T09:08:00.114Z,20.30
2022-10-19T09:10:39.323Z,20.30
2022-10-19T09:13:41.477Z,20.40
2022-10-19T09:16:29.697Z,20.50
2022-10-19T09:19:14.268Z,20.50
2022-10-19T09:21:56.432Z,20.60
2022-10-19T09:24:45.157Z,20.70
2022-10-19T09:27:29.299Z,20.70
2022-10-19T09:30:17.525Z,20.80
2022-10-19T09:33:00.738Z,20.86
2022-10-19T09:35:45.600Z,20.90
2022-10-19T09:38:23.691Z,21.00
2022-10-19T09:41:08.597Z,21.10
2022-10-19T09:43:53.700Z,21.20
2022-10-19T09:46:52.453Z,21.20
2022-10-19T09:49:48.670Z,21.30
2022-10-19T09:52:39.602Z,21.30
2022-10-19T09:55:41.133Z,21.40
2022-10-19T09:58:30.503Z,21.50
2022-10-19T10:01:09.692Z,21.50
2022-10-19T10:03:46.969Z,21.52
2022-10-19T10:06:26.557Z,21.60
2022-10-19T10:09:04.231Z,21.70
2022-10-19T10:11:42.528Z,21.72
2022-10-19T10:14:28.094Z,21.80
2022-10-19T10:17:07.627Z,21.90
2022-10-19T10:20:04.304Z,21.90
2022-10-19T10:22:41.828Z,22.00
2022-10-19T10:25:27.544Z,22.00
2022-10-19T10:28:19.670Z,22.10
2022-10-19T10:31:03.739Z,22.10
2022-10-19T10:33:45.682Z,22.20
2022-10-19T10:36:26.017Z,22.20
2022-10-19T10:39:10.713Z,22.30
2022-10-19T10:41:53.042Z,22.30
2022-10-19T10:44:31.869Z,22.40
2022-10-19T10:47:16.236Z,22.40
2022-10-19T10:50:02.932Z,22.50
2022-10-19T10:52:58.941Z,22.50
2022-10-19T10:55:37.842Z,22.60
2022-10-19T10:58:25.498Z,22.68
2022-10-19T11:01:07.622Z,22.70
2022-10-19T11:03:59.855Z,22.72
2022-10-19T11:06:44.620Z,22.80
2022-10-19T11:09:37.684Z,22.88
2022-10-19T11:12:18.463Z,22.90
2022-10-19T11:15:06.052Z,23.00
2022-10-19T11:18:03.538Z,23.08
2022-10-19T11:20:49.322Z,23.10
2022-10-19T11:23:39.780Z,23.20
2022-10-19T11:26:34.316Z,23.28
2022-10-19T11:29:39.942Z,23.30
2022-10-19T11:32:29.932Z,23.30
2022-10-19T11:35:33.929Z,23.36
2022-10-19T11:38:31.456Z,23.40
2022-10-19T11:41:35.440Z,23.44
2022-10-19T11:45:05.623Z,23.50
2022-10-19T11:48:09.730Z,23.60
2022-10-19T11:51:16.878Z,23.62
2022-10-19T11:54:21.943Z,23.70
2022-10-19T11:57:10.560Z,23.80
2022-10-19T12:00:15.137Z,23.80
2022-10-19T12:04:00.445Z,23.90
2022-10-19T12:06:48.719Z,23.90
2022-10-19T12:12:37.922Z,24.00
2022-10-19T12:15:35.968Z,24.00
2022-10-19T12:18:32.434Z,24.00
2022-10-19T12:21:15.771Z,24.00
2022-10-19T12:23:54.121Z,24.04
2022-10-19T12:26:33.950Z,24.10
2022-10-19T12:29:19.024Z,24.16
2022-10-19T12:31:56.563Z,24.20
2022-10-19T12:34:52.297Z,24.20
2022-10-19T12:37:42.256Z,24.20
2022-10-19T12:40:34.358Z,24.20
2022-10-19T12:43:22.072Z,24.28
2022-10-19T12:46:11.287Z,24.30
2022-10-19T12:48:47.437Z,24.30
2022-10-19T12:51:24.844Z,24.34
2022-10-19T12:54:15.341Z,24.40
2022-10-19T12:56:59.081Z,24.40
2022-10-19T12:59:38.593Z,24.40
2022-10-19T13:02:34.345Z,24.46
2022-10-19T13:05:23.607Z,24.50
2022-10-19T13:08:00.200Z,24.50
2022-10-19T13:10:38.007Z,24.50
2022-10-19T13:13:57.714Z,24.50
2022-10-19T13:17:06.005Z,24.60
2022-10-19T13:19:43.880Z,24.60
2022-10-19T13:22:35.171Z,24.60
2022-10-19T13:25:33.297Z,24.70
2022-10-19T13:28:39.897Z,24.70
2022-10-19T13:31:35.070Z,24.70
2022-10-19T13:34:20.202Z,24.70
2022-10-19T13:37:14.643Z,24.70
2022-10-19T13:39:52.547Z,24.70
2022-10-19T13:42:33.372Z,24.70
2022-10-19T13:45:24.694Z,24.70
2022-10-19T13:48:13.954Z,24.70
2022-10-19T13:50:57.773Z,24.70
2022-10-19T13:53:48.123Z,24.70
2022-10-19T13:56:54.846Z,24.70
2022-10-19T14:00:22.294Z,24.72
2022-10-19T14:03:19.983Z,24.80
2022-10-19T14:06:28.693Z,24.80
2022-10-19T14:10:03.687Z,24.80
2022-10-19T14:12:45.797Z,24.76
2022-10-19T14:15:39.163Z,24.70
2022-10-19T14:18:37.547Z,24.72
2022-10-19T14:21:15.370Z,24.70
2022-10-19T14:23:52.047Z,24.70
2022-10-19T14:26:32.712Z,24.70
2022-10-19T14:29:09.321Z,24.70
2022-10-19T14:31:46.026Z,24.60
2022-10-19T14:34:23.197Z,24.60
2022-10-19T14:36:59.069Z,24.60
2022-10-19T14:39:38.539Z,24.60
2022-10-19T14:42:17.154Z,24.60
2022-10-19T14:44:53.095Z,24.60
2022-10-19T14:47:30.474Z,24.60
2022-10-19T14:50:07.221Z,24.60
2022-10-19T14:52:45.580Z,24.50
2022-10-19T14:55:28.694Z,24.50
2022-10-19T14:58:06.984Z,24.50
2022-10-19T15:00:45.079Z,24.40
2022-10-19T15:03:31.105Z,24.40
2022-10-19T15:06:16.521Z,24.34
2022-10-19T15:08:58.294Z,24.30
2022-10-19T15:11:42.952Z,24.30
2022-10-19T15:14:24.478Z,24.30
2022-10-19T15:17:05.294Z,24.20
2022-10-19T15:19:47.824Z,24.20
2022-10-19T15:22:32.522Z,24.20
2022-10-19T15:25:30.036Z,24.10
2022-10-19T15:28:39.001Z,24.10
2022-10-19T15:31:29.212Z,24.00
2022-10-19T15:34:07.894Z,24.00
2022-10-19T15:36:58.426Z,23.92
2022-10-19T15:39:42.306Z,23.90
2022-10-19T15:42:41.347Z,23.86
2022-10-19T15:45:39.190Z,23.80
2022-10-19T15:48:50.073Z,23.80
2022-10-19T15:51:47.853Z,23.70
2022-10-19T15:54:25.874Z,23.70
2022-10-19T15:57:02.976Z,23.60
2022-10-19T15:59:39.101Z,23.60
2022-10-19T16:02:25.487Z,23.50
2022-10-19T16:05:02.273Z,23.50
2022-10-19T16:07:42.437Z,23.40
2022-10-19T16:10:24.375Z,23.30
2022-10-19T16:13:00.966Z,23.20
2022-10-19T16:15:37.719Z,23.10
2022-10-19T16:18:15.720Z,22.96
2022-10-19T16:20:52.445Z,22.80
2022-10-19T16:23:29.157Z,22.70
2022-10-19T16:26:05.689Z,22.50
2022-10-19T16:28:42.723Z,22.40
2022-10-19T16:31:19.922Z,22.28
2022-10-19T16:33:56.471Z,22.20
2022-10-19T16:36:32.343Z,22.10
2022-10-19T16:39:08.746Z,22.00
2022-10-19T16:41:46.228Z,21.90
2022-10-19T16:44:24.100Z,21.80
2022-10-19T16:47:02.560Z,21.70
2022-10-19T16:49:39.628Z,21.60
2022-10-19T16:52:17.601Z,21.56
2022-10-19T16:54:54.250Z,21.50
2022-10-19T16:57:30.585Z,21.40
2022-10-19T17:00:07.384Z,21.30
2022-10-19T17:02:45.804Z,21.30
2022-10-19T17:05:23.077Z,21.30
2022-10-19T17:07:59.704Z,21.20
2022-10-19T17:10:35.666Z,21.20
2022-10-19T17:13:11.670Z,21.14
2022-10-19T17:15:49.043Z,21.10
2022-10-19T17:18:25.789Z,21.10
2022-10-19T17:21:06.102Z,21.00
2022-10-19T17:23:41.193Z,21.00
2022-10-19T17:26:19.399Z,21.00
2022-10-19T17:28:55.696Z,20.92
2022-10-19T17:31:32.548Z,20.90
2022-10-19T17:34:09.445Z,20.88
2022-10-19T17:36:48.555Z,20.80
2022-10-19T17:39:29.141Z,20.80
2022-10-19T17:42:07.230Z,20.78
2022-10-19T17:44:43.624Z,20.70
2022-10-19T17:47:20.505Z,20.70
2022-10-19T17:49:57.125Z,20.70
2022-10-19T17:52:34.191Z,20.64
2022-10-19T17:55:13.300Z,20.60
2022-10-19T17:57:49.981Z,20.60
2022-10-19T18:00:26.541Z,20.58
2022-10-19T18:03:02.968Z,20.50
2022-10-19T18:05:40.841Z,20.50
2022-10-19T18:08:18.190Z,20.50
2022-10-19T18:10:59.008Z,20.50
2022-10-19T18:16:14.555Z,20.40
2022-10-19T18:18:52.176Z,20.40
2022-10-19T18:21:30.711Z,20.40
2022-10-19T18:24:12.750Z,20.40
2022-10-19T18:26:52.855Z,20.30
2022-10-19T18:29:31.118Z,20.30
2022-10-19T18:32:07.826Z,20.30
2022-10-19T18:34:44.012Z,20.20
2022-10-19T18:37:21.095Z,20.20
2022-10-19T18:39:57.244Z,20.20
2022-10-19T18:42:34.333Z,20.10
2022-10-19T18:45:15.181Z,20.10
2022-10-19T18:47:51.972Z,20.00
2022-10-19T18:50:28.573Z,20.00
2022-10-19T18:53:05.076Z,19.98
2022-10-19T18:55:41.561Z,19.90
2022-10-19T18:58:17.390Z,19.90
2022-10-19T19:00:53.355Z,19.88
2022-10-19T19:03:30.901Z,19.80
2022-10-19T19:06:09.392Z,19.80
2022-10-19T19:08:45.925Z,19.80
2022-10-19T19:11:24.811Z,19.80
2022-10-19T19:14:03.680Z,19.80
2022-10-19T19:16:42.820Z,19.80
2022-10-19T19:19:24.684Z,19.72
2022-10-19T19:22:07.835Z,19.70
2022-10-19T19:24:46.109Z,19.70
2022-10-19T19:27:27.254Z,19.60
2022-10-19T19:30:08.077Z,19.60
2022-10-19T19:32:44.433Z,19.58
2022-10-19T19:35:23.133Z,19.50
2022-10-19T19:37:59.637Z,19.50
2022-10-19T19:40:35.909Z,19.50
2022-10-19T19:43:12.025Z,19.50
2022-10-19T19:45:57.354Z,19.50
2022-10-19T19:48:34.065Z,19.50
2022-10-19T19:51:12.252Z,19.40
2022-10-19T19:53:49.758Z,19.40
2022-10-19T19:56:26.660Z,19.40
2022-10-19T19:59:05.095Z,19.40
2022-10-19T20:01:42.194Z,19.30
2022-10-19T20:04:18.218Z,19.30
2022-10-19T20:06:54.441Z,19.30
2022-10-19T20:09:31.538Z,19.30
2022-10-19T20:12:08.001Z,19.30
2022-10-19T20:14:44.524Z,19.30
2022-10-19T20:17:24.599Z,19.30
2022-10-19T20:20:00.601Z,19.30
2022-10-19T20:22:37.289Z,19.30
2022-10-19T20:25:16.408Z,19.30
2022-10-19T20:27:52.634Z,19.30
2022-10-19T20:30:29.438Z,19.30
2022-10-19T20:33:06.793Z,19.30
2022-10-19T20:35:45.086Z,19.20
2022-10-19T20:38:21.137Z,19.20
2022-10-19T20:40:57.703Z,19.20
2022-10-19T20:43:34.506Z,19.20
2022-10-19T20:46:13.753Z,19.10
2022-10-19T20:48:49.691Z,19.10
2022-10-19T20:51:32.014Z,19.10
2022-10-19T20:54:12.677Z,19.10
2022-10-19T20:56:49.921Z,19.10
2022-10-19T20:59:27.971Z,19.10
2022-10-19T21:02:04.146Z,19.06
2022-10-19T21:04:42.928Z,19.00
2022-10-19T21:07:19.499Z,19.00
2022-10-19T21:09:56.413Z,19.00
2022-10-19T21:12:33.521Z,19.00
2022-10-19T21:15:13.730Z,19.00
2022-10-19T21:17:51.836Z,19.00
2022-10-19T21:20:27.981Z,18.92
2022-10-19T21:23:06.024Z,18.90
2022-10-19T21:25:41.938Z,18.90
2022-10-19T21:28:18.001Z,18.90
2022-10-19T21:30:54.792Z,18.90
2022-10-19T21:33:32.584Z,18.90
2022-10-19T21:36:12.164Z,18.90
2022-10-19T21:38:49.314Z,18.90
2022-10-19T21:41:26.715Z,18.80
2022-10-19T21:44:03.466Z,18.80
2022-10-19T21:46:38.954Z,18.80
2022-10-19T21:49:15.990Z,18.80
2022-10-19T21:51:54.522Z,18.80
2022-10-19T21:54:31.209Z,18.80
2022-10-19T21:57:07.353Z,18.80
2022-10-19T21:59:43.822Z,18.80
2022-10-19T22:02:20.066Z,18.80
2022-10-19T22:04:56.687Z,18.80
2022-10-19T22:07:33.909Z,18.74
2022-10-19T22:10:11.976Z,18.70
2022-10-19T22:12:47.255Z,18.70
2022-10-19T22:15:24.515Z,18.70
2022-10-19T22:18:00.956Z,18.70
2022-10-19T22:20:37.369Z,18.70
2022-10-19T22:23:15.473Z,18.70
2022-10-19T22:25:52.331Z,18.70
2022-10-19T22:28:28.896Z,18.70
2022-10-19T22:31:05.882Z,18.70
2022-10-19T22:33:41.457Z,18.70
2022-10-19T22:36:19.121Z,18.62
2022-10-19T22:38:55.419Z,18.60
2022-10-19T22:42:38.806Z,18.62
2022-10-19T22:46:40.778Z,18.60
2022-10-19T22:50:43.802Z,18.60
2022-10-19T22:53:38.991Z,18.60
2022-10-19T22:56:17.273Z,18.60
2022-10-19T22:58:54.258Z,18.60
2022-10-19T23:01:30.790Z,18.60
2022-10-19T23:04:07.672Z,18.60
2022-10-19T23:06:43.660Z,18.60
2022-10-19T23:09:19.900Z,18.60
2022-10-19T23:11:56.246Z,18.60
2022-10-19T23:14:33.448Z,18.60
2022-10-19T23:17:09.861Z,18.60
2022-10-19T23:19:46.271Z,18.60
2022-10-19T23:22:21.834Z,18.60
2022-10-19T23:24:58.498Z,18.50
2022-10-19T23:27:35.176Z,18.50
2022-10-19T23:30:15.900Z,18.50
2022-10-19T23:32:52.151Z,18.50
2022-10-19T23:35:28.524Z,18.50
2022-10-19T23:38:04.899Z,18.50
2022-10-19T23:40:41.410Z,18.50
2022-10-19T23:43:17.522Z,18.50
2022-10-19T23:45:53.968Z,18.48
2022-10-19T23:48:30.270Z,18.44
2022-10-19T23:51:11.321Z,18.40
2022-10-19T23:53:49.151Z,18.40
2022-10-19T23:56:28.743Z,18.40
2022-10-19T23:59:05.414Z,18.40
